createdAt,value
2018-08-27T00:00:07.615Z,99.90
2018-08-27T00:02:36.041Z,99.90
2018-08-27T00:05:04.583Z,99.90
2018-08-27T00:07:33.071Z,99.90
2018-08-27T00:10:01.542Z,99.90
2018-08-27T00:12:30.024Z,99.90
2018-08-27T00:14:58.504Z,99.90
2018-08-27T00:17:26.951Z,99.90
2018-08-27T00:19:55.370Z,99.90
2018-08-27T00:22:23.846Z,99.90
2018-08-27T00:24:52.309Z,99.90
2018-08-27T00:27:20.745Z,99.90
2018-08-27T00:29:49.193Z,99.90
2018-08-27T00:32:17.648Z,99.90
2018-08-27T00:34:46.097Z,99.90
2018-08-27T00:37:14.564Z,99.90
2018-08-27T00:39:43.014Z,99.90
2018-08-27T00:42:11.481Z,99.90
2018-08-27T00:44:39.926Z,99.90
2018-08-27T00:47:08.375Z,99.90
2018-08-27T00:49:36.814Z,99.90
2018-08-27T00:52:05.292Z,99.90
2018-08-27T00:54:33.733Z,99.90
2018-08-27T00:57:02.212Z,99.90
2018-08-27T00:59:30.711Z,99.90
2018-08-27T01:01:59.149Z,99.90
2018-08-27T01:04:27.599Z,99.90
2018-08-27T01:06:56.044Z,99.90
2018-08-27T01:09:24.532Z,99.90
2018-08-27T01:11:53.189Z,99.90
2018-08-27T01:14:21.822Z,99.90
2018-08-27T01:16:50.888Z,99.90
2018-08-27T01:19:19.353Z,99.90
2018-08-27T01:21:47.815Z,99.90
2018-08-27T01:24:16.605Z,99.90
2018-08-27T01:26:45.616Z,99.90
2018-08-27T01:29:14.478Z,99.90
2018-08-27T01:31:43.046Z,99.90
2018-08-27T01:34:11.481Z,99.90
2018-08-27T01:36:39.960Z,99.90
2018-08-27T01:39:08.917Z,99.90
2018-08-27T01:41:37.373Z,99.90
2018-08-27T01:44:06.353Z,99.90
2018-08-27T01:46:34.838Z,99.90
2018-08-27T01:49:03.302Z,99.90
2018-08-27T01:51:31.821Z,99.90
2018-08-27T01:54:00.332Z,99.90
2018-08-27T01:56:28.769Z,99.90
2018-08-27T01:58:57.213Z,99.90
2018-08-27T02:01:25.662Z,99.90
2018-08-27T02:03:54.077Z,99.90
2018-08-27T02:06:22.577Z,99.90
2018-08-27T02:08:51.039Z,99.90
2018-08-27T02:11:19.546Z,99.90
2018-08-27T02:13:47.990Z,99.90
2018-08-27T02:16:16.450Z,99.90
2018-08-27T02:18:44.882Z,99.90
2018-08-27T02:21:13.334Z,99.90
2018-08-27T02:23:41.794Z,99.90
2018-08-27T02:26:10.271Z,99.90
2018-08-27T02:28:38.710Z,99.90
2018-08-27T02:31:07.162Z,99.90
2018-08-27T02:33:35.609Z,99.90
2018-08-27T02:36:04.060Z,99.90
2018-08-27T02:38:32.523Z,99.90
2018-08-27T02:41:00.983Z,99.90
2018-08-27T02:43:29.446Z,99.90
2018-08-27T02:45:57.890Z,99.90
2018-08-27T02:48:26.325Z,99.90
2018-08-27T02:50:54.769Z,99.90
2018-08-27T02:53:23.227Z,99.90
2018-08-27T02:55:51.702Z,99.90
2018-08-27T02:58:20.160Z,99.90
2018-08-27T03:00:48.623Z,99.90
2018-08-27T03:03:17.107Z,99.90
2018-08-27T03:05:45.575Z,99.90
2018-08-27T03:08:14.026Z,99.90
2018-08-27T03:10:42.569Z,99.90
2018-08-27T03:13:11.012Z,99.90
2018-08-27T03:15:39.610Z,99.90
2018-08-27T03:18:08.074Z,99.90
2018-08-27T03:20:36.889Z,99.90
2018-08-27T03:23:05.341Z,99.90
2018-08-27T03:25:33.805Z,99.90
2018-08-27T03:28:02.227Z,99.90
2018-08-27T03:30:30.711Z,99.90
2018-08-27T03:32:59.210Z,99.90
2018-08-27T03:35:27.630Z,99.90
2018-08-27T03:37:56.072Z,99.90
2018-08-27T03:40:24.562Z,99.90
2018-08-27T03:42:52.985Z,99.90
2018-08-27T03:45:21.479Z,99.90
2018-08-27T03:47:49.944Z,99.90
2018-08-27T03:50:18.479Z,99.90
2018-08-27T03:52:46.914Z,99.90
2018-08-27T03:55:15.351Z,99.90
2018-08-27T03:57:43.801Z,99.90
2018-08-27T04:00:12.258Z,99.90
2018-08-27T04:02:40.717Z,99.90
2018-08-27T04:05:09.198Z,99.90
2018-08-27T04:07:37.775Z,99.90
2018-08-27T04:10:06.238Z,99.90
2018-08-27T04:12:34.685Z,99.90
2018-08-27T04:15:03.447Z,99.90
2018-08-27T04:17:32.826Z,99.90
2018-08-27T04:20:02.745Z,99.90
2018-08-27T04:22:31.274Z,99.90
2018-08-27T04:24:59.994Z,99.90
2018-08-27T04:27:28.479Z,99.90
2018-08-27T04:29:56.899Z,99.90
2018-08-27T04:32:25.350Z,99.90
2018-08-27T04:34:53.815Z,99.90
2018-08-27T04:37:22.725Z,99.90
2018-08-27T04:39:51.247Z,99.90
2018-08-27T04:42:19.705Z,99.90
2018-08-27T04:44:48.147Z,99.90
2018-08-27T04:47:16.620Z,99.90
2018-08-27T04:49:45.043Z,99.90
2018-08-27T04:52:13.486Z,99.90
2018-08-27T04:54:41.940Z,99.90
2018-08-27T04:57:10.400Z,99.90
2018-08-27T04:59:42.705Z,99.90
2018-08-27T05:02:11.179Z,99.90
2018-08-27T05:04:39.611Z,99.90
2018-08-27T05:07:08.079Z,99.90
2018-08-27T05:09:36.501Z,99.90
2018-08-27T05:12:04.978Z,99.90
2018-08-27T05:14:33.483Z,99.90
2018-08-27T05:17:01.929Z,99.90
2018-08-27T05:19:30.382Z,99.90
2018-08-27T05:21:58.829Z,99.90
2018-08-27T05:24:27.275Z,99.90
2018-08-27T05:26:55.832Z,99.90
2018-08-27T05:29:24.273Z,99.90
2018-08-27T05:31:52.731Z,99.90
2018-08-27T05:34:21.160Z,99.90
2018-08-27T05:36:49.630Z,99.90
2018-08-27T05:39:18.060Z,99.90
2018-08-27T05:41:46.523Z,99.90
2018-08-27T05:44:14.964Z,99.90
2018-08-27T05:46:43.398Z,99.90
2018-08-27T05:49:11.821Z,99.90
2018-08-27T05:51:40.266Z,99.90
2018-08-27T05:54:08.689Z,99.90
2018-08-27T05:56:37.130Z,99.90
2018-08-27T05:59:05.555Z,99.90
2018-08-27T06:01:34.096Z,99.90
2018-08-27T06:04:02.478Z,99.90
2018-08-27T06:06:31.160Z,99.90
2018-08-27T06:08:59.628Z,99.90
2018-08-27T06:11:28.559Z,99.90
2018-08-27T06:13:56.969Z,99.90
2018-08-27T06:16:25.435Z,99.90
2018-08-27T06:18:53.936Z,99.90
2018-08-27T06:21:22.402Z,99.90
2018-08-27T06:23:50.854Z,99.90
2018-08-27T06:26:19.305Z,99.90
2018-08-27T06:28:47.741Z,99.90
2018-08-27T06:31:16.222Z,99.90
2018-08-27T06:33:44.654Z,99.90
2018-08-27T06:36:13.121Z,99.90
2018-08-27T06:38:41.782Z,99.90
2018-08-27T06:41:10.340Z,99.90
2018-08-27T06:43:38.771Z,99.90
2018-08-27T06:46:07.649Z,99.90
2018-08-27T06:48:36.089Z,99.90
2018-08-27T06:51:04.599Z,99.90
2018-08-27T06:53:33.054Z,99.90
2018-08-27T06:56:01.999Z,99.90
2018-08-27T06:58:30.516Z,99.90
2018-08-27T07:00:58.995Z,99.90
2018-08-27T07:03:27.459Z,99.90
2018-08-27T07:05:55.923Z,99.90
2018-08-27T07:08:24.360Z,99.90
2018-08-27T07:10:52.814Z,99.90
2018-08-27T07:13:21.297Z,99.90
2018-08-27T07:15:49.743Z,99.90
2018-08-27T07:18:18.186Z,99.90
2018-08-27T07:20:46.635Z,99.90
2018-08-27T07:23:15.080Z,99.90
2018-08-27T07:25:43.551Z,99.90
2018-08-27T07:28:12.035Z,99.90
2018-08-27T07:30:40.480Z,99.90
2018-08-27T07:33:08.926Z,99.90
2018-08-27T07:35:37.471Z,99.90
2018-08-27T07:38:06.026Z,99.90
2018-08-27T07:40:34.483Z,99.90
2018-08-27T07:43:02.921Z,99.90
2018-08-27T07:45:31.355Z,99.90
2018-08-27T07:47:59.813Z,99.90
2018-08-27T07:50:28.306Z,99.90
2018-08-27T07:52:56.760Z,99.90
2018-08-27T07:55:25.485Z,99.90
2018-08-27T07:57:53.956Z,99.90
2018-08-27T08:00:23.770Z,99.90
2018-08-27T08:02:53.806Z,99.90
2018-08-27T08:05:22.559Z,99.90
2018-08-27T08:07:51.242Z,99.90
2018-08-27T08:10:20.309Z,99.90
2018-08-27T08:12:50.586Z,99.90
2018-08-27T08:15:19.474Z,99.90
2018-08-27T08:17:48.146Z,99.90
2018-08-27T08:20:16.611Z,99.90
2018-08-27T08:22:45.203Z,99.90
2018-08-27T08:25:13.883Z,99.90
2018-08-27T08:27:42.325Z,99.90
2018-08-27T08:30:10.803Z,99.90
2018-08-27T08:32:39.256Z,99.90
2018-08-27T08:35:07.783Z,99.90
2018-08-27T08:37:36.241Z,99.90
2018-08-27T08:40:04.847Z,99.90
2018-08-27T08:42:33.498Z,99.90
2018-08-27T08:45:01.968Z,99.90
2018-08-27T08:47:30.436Z,99.90
2018-08-27T08:49:58.916Z,99.90
2018-08-27T08:52:27.358Z,99.90
2018-08-27T08:54:55.805Z,99.90
2018-08-27T08:57:24.311Z,99.90
2018-08-27T08:59:52.782Z,99.90
2018-08-27T09:02:21.217Z,99.90
2018-08-27T09:04:49.660Z,99.90
2018-08-27T09:07:18.132Z,99.90
2018-08-27T09:09:46.570Z,99.90
2018-08-27T09:12:15.022Z,99.90
2018-08-27T09:14:43.507Z,99.90
2018-08-27T09:17:12.040Z,99.90
2018-08-27T09:19:40.425Z,99.90
2018-08-27T09:22:08.865Z,99.90
2018-08-27T09:24:37.320Z,99.90
2018-08-27T09:27:05.816Z,99.90
2018-08-27T09:29:34.246Z,99.90
2018-08-27T09:32:03.179Z,99.90
2018-08-27T09:34:31.637Z,99.90
2018-08-27T09:37:00.177Z,99.90
2018-08-27T09:39:28.527Z,99.90
2018-08-27T09:41:56.969Z,99.90
2018-08-27T09:44:25.439Z,99.90
2018-08-27T09:46:54.026Z,99.90
2018-08-27T09:49:22.421Z,99.90
2018-08-27T09:51:50.860Z,99.90
2018-08-27T09:54:19.333Z,99.90
2018-08-27T09:56:47.793Z,99.90
2018-08-27T09:59:16.235Z,99.90
2018-08-27T10:01:50.085Z,99.90
2018-08-27T10:04:18.499Z,99.90
2018-08-27T10:06:46.968Z,99.90
2018-08-27T10:09:15.447Z,99.90
2018-08-27T10:11:43.880Z,99.90
2018-08-27T10:14:12.337Z,99.90
2018-08-27T10:16:40.791Z,99.90
2018-08-27T10:19:09.255Z,99.90
2018-08-27T10:21:37.705Z,99.90
2018-08-27T10:24:06.293Z,99.90
2018-08-27T10:26:34.924Z,99.90
2018-08-27T10:29:04.139Z,99.90
2018-08-27T10:31:32.587Z,99.90
2018-08-27T10:34:01.245Z,99.90
2018-08-27T10:36:29.703Z,99.90
2018-08-27T10:38:58.157Z,99.90
2018-08-27T10:41:26.639Z,99.90
2018-08-27T10:43:55.106Z,99.90
2018-08-27T10:46:23.591Z,99.90
2018-08-27T10:48:52.054Z,99.70
2018-08-27T10:51:20.544Z,98.80
2018-08-27T10:53:49.007Z,99.10
2018-08-27T10:56:17.465Z,99.90
2018-08-27T10:58:45.932Z,99.90
2018-08-27T11:01:14.423Z,99.90
2018-08-27T11:03:49.401Z,99.90
2018-08-27T11:06:17.933Z,98.70
2018-08-27T11:08:46.377Z,96.30
2018-08-27T11:11:14.859Z,96.40
2018-08-27T11:13:43.415Z,96.40
2018-08-27T11:16:11.897Z,96.10
2018-08-27T11:18:40.313Z,96.20
2018-08-27T11:21:08.798Z,96.40
2018-08-27T11:23:37.269Z,96.00
2018-08-27T11:26:05.758Z,93.50
2018-08-27T11:28:34.200Z,92.80
2018-08-27T11:31:02.663Z,90.70
2018-08-27T11:33:31.155Z,90.00
2018-08-27T11:35:59.599Z,84.80
2018-08-27T11:38:28.096Z,81.80
2018-08-27T11:40:56.570Z,79.00
2018-08-27T11:43:25.123Z,79.40
2018-08-27T11:45:53.524Z,78.40
2018-08-27T11:48:21.985Z,76.70
2018-08-27T11:50:50.596Z,72.90
2018-08-27T11:53:18.930Z,70.60
2018-08-27T11:55:47.367Z,72.90
2018-08-27T11:58:15.884Z,69.90
2018-08-27T12:00:49.686Z,70.20
2018-08-27T12:03:18.185Z,69.40
2018-08-27T12:05:46.644Z,70.20
2018-08-27T12:08:15.131Z,69.00
2018-08-27T12:10:43.587Z,78.90
2018-08-27T12:13:12.029Z,86.70
2018-08-27T12:15:40.495Z,88.30
2018-08-27T12:18:08.966Z,86.10
2018-08-27T12:20:37.426Z,83.30
2018-08-27T12:23:05.971Z,79.40
2018-08-27T12:25:34.437Z,76.50
2018-08-27T12:28:02.912Z,70.80
2018-08-27T12:30:31.390Z,69.30
2018-08-27T12:32:59.820Z,71.20
2018-08-27T12:35:28.285Z,72.90
2018-08-27T12:37:56.752Z,74.20
2018-08-27T12:40:25.248Z,71.50
2018-08-27T12:42:53.691Z,67.80
2018-08-27T12:45:22.183Z,68.70
2018-08-27T12:47:50.668Z,68.80
2018-08-27T12:50:19.198Z,69.60
2018-08-27T12:52:47.664Z,68.00
2018-08-27T12:55:16.171Z,66.40
2018-08-27T12:57:44.630Z,68.50
2018-08-27T13:00:15.860Z,73.10
2018-08-27T13:02:45.521Z,74.20
2018-08-27T13:05:13.979Z,73.30
2018-08-27T13:07:43.287Z,75.30
2018-08-27T13:10:11.775Z,79.00
2018-08-27T13:12:40.404Z,86.40
2018-08-27T13:15:09.183Z,89.50
2018-08-27T13:17:37.696Z,89.30
2018-08-27T13:20:06.230Z,89.40
2018-08-27T13:22:34.736Z,87.80
2018-08-27T13:25:04.021Z,81.60
2018-08-27T13:27:33.355Z,75.60
2018-08-27T13:30:01.919Z,71.10
2018-08-27T13:32:30.415Z,69.80
2018-08-27T13:34:58.869Z,68.00
2018-08-27T13:37:27.316Z,66.80
2018-08-27T13:39:55.846Z,66.70
2018-08-27T13:42:24.305Z,72.00
2018-08-27T13:44:52.758Z,76.60
2018-08-27T13:47:21.240Z,77.20
2018-08-27T13:49:49.699Z,78.30
2018-08-27T13:52:18.150Z,74.20
2018-08-27T13:54:46.610Z,71.70
2018-08-27T13:57:15.066Z,68.70
2018-08-27T13:59:43.576Z,66.70
2018-08-27T14:02:11.970Z,65.90
2018-08-27T14:04:40.444Z,67.30
2018-08-27T14:07:08.881Z,68.20
2018-08-27T14:09:37.346Z,68.30
2018-08-27T14:12:05.793Z,69.80
2018-08-27T14:14:34.233Z,69.40
2018-08-27T14:17:02.729Z,70.30
2018-08-27T14:19:31.260Z,71.40
2018-08-27T14:21:59.762Z,73.80
2018-08-27T14:24:28.257Z,75.80
2018-08-27T14:26:56.739Z,73.10
2018-08-27T14:29:25.470Z,72.10
2018-08-27T14:31:53.985Z,71.90
2018-08-27T14:34:22.482Z,69.90
2018-08-27T14:36:50.946Z,72.10
2018-08-27T14:39:19.394Z,68.00
2018-08-27T14:41:47.948Z,64.20
2018-08-27T14:44:16.350Z,62.50
2018-08-27T14:46:44.823Z,62.10
2018-08-27T14:49:13.278Z,61.70
2018-08-27T14:51:41.725Z,62.30
2018-08-27T14:54:10.194Z,62.40
2018-08-27T14:56:38.670Z,62.50
2018-08-27T14:59:07.106Z,63.30
2018-08-27T15:01:35.545Z,64.20
2018-08-27T15:04:04.077Z,65.70
2018-08-27T15:06:32.520Z,65.00
2018-08-27T15:09:00.998Z,66.20
2018-08-27T15:11:29.471Z,65.80
2018-08-27T15:13:57.909Z,64.60
2018-08-27T15:16:26.992Z,67.30
2018-08-27T15:18:55.459Z,63.50
2018-08-27T15:21:23.899Z,63.60
2018-08-27T15:23:52.424Z,63.00
2018-08-27T15:26:20.860Z,60.90
2018-08-27T15:28:49.340Z,67.40
2018-08-27T15:31:17.804Z,72.60
2018-08-27T15:33:46.257Z,72.60
2018-08-27T15:36:14.718Z,70.90
2018-08-27T15:38:43.309Z,72.00
2018-08-27T15:41:11.682Z,72.40
2018-08-27T15:43:40.130Z,73.80
2018-08-27T15:46:13.962Z,73.30
2018-08-27T15:48:42.406Z,76.80
2018-08-27T15:51:10.909Z,79.50
2018-08-27T15:53:39.353Z,83.40
2018-08-27T15:56:07.847Z,87.30
2018-08-27T15:58:36.285Z,89.80
2018-08-27T16:01:04.975Z,90.10
2018-08-27T16:03:33.407Z,90.60
2018-08-27T16:06:01.855Z,91.20
2018-08-27T16:08:30.311Z,91.60
2018-08-27T16:10:58.774Z,92.40
2018-08-27T16:13:27.217Z,93.40
2018-08-27T16:15:55.667Z,94.50
2018-08-27T16:18:24.104Z,94.80
2018-08-27T16:20:52.539Z,95.60
2018-08-27T16:23:21.049Z,95.80
2018-08-27T16:25:49.516Z,96.10
2018-08-27T16:28:18.023Z,96.20
2018-08-27T16:30:46.451Z,96.00
2018-08-27T16:33:14.914Z,95.70
2018-08-27T16:35:43.343Z,95.50
2018-08-27T16:38:11.815Z,95.20
2018-08-27T16:40:40.272Z,95.40
2018-08-27T16:43:08.735Z,95.60
2018-08-27T16:45:37.197Z,95.50
2018-08-27T16:48:05.703Z,95.30
2018-08-27T16:50:34.200Z,94.70
2018-08-27T16:53:02.669Z,94.50
2018-08-27T16:55:31.156Z,93.90
2018-08-27T16:57:59.691Z,93.70
2018-08-27T17:00:28.158Z,92.90
2018-08-27T17:02:56.662Z,93.60
2018-08-27T17:05:25.178Z,94.70
2018-08-27T17:07:53.681Z,95.40
2018-08-27T17:10:22.226Z,95.90
2018-08-27T17:12:50.663Z,95.80
2018-08-27T17:15:19.127Z,95.90
2018-08-27T17:17:47.622Z,96.20
2018-08-27T17:20:16.183Z,95.60
2018-08-27T17:22:44.744Z,95.70
2018-08-27T17:25:13.226Z,95.80
2018-08-27T17:27:41.776Z,96.20
2018-08-27T17:30:10.298Z,96.30
2018-08-27T17:32:38.777Z,96.50
2018-08-27T17:35:07.628Z,96.90
2018-08-27T17:37:36.126Z,97.20
2018-08-27T17:40:04.636Z,97.20
2018-08-27T17:42:33.149Z,97.40
2018-08-27T17:45:01.775Z,98.00
2018-08-27T17:47:30.207Z,98.10
2018-08-27T17:49:58.837Z,98.40
2018-08-27T17:52:27.327Z,98.90
2018-08-27T17:54:55.793Z,99.50
2018-08-27T17:57:24.325Z,99.80
2018-08-27T17:59:52.833Z,99.90
2018-08-27T18:02:21.326Z,99.90
2018-08-27T18:04:49.945Z,99.90
2018-08-27T18:07:18.392Z,99.90
2018-08-27T18:09:46.842Z,99.90
2018-08-27T18:12:15.291Z,99.90
2018-08-27T18:14:43.806Z,99.90
2018-08-27T18:17:12.335Z,99.90
2018-08-27T18:19:40.892Z,99.90
2018-08-27T18:22:09.262Z,99.90
2018-08-27T18:24:37.767Z,99.90
2018-08-27T18:27:06.258Z,99.90
2018-08-27T18:29:34.785Z,99.90
2018-08-27T18:32:03.338Z,99.90
2018-08-27T18:34:31.828Z,99.90
2018-08-27T18:37:00.265Z,99.90
2018-08-27T18:39:28.788Z,99.90
2018-08-27T18:41:57.262Z,99.90
2018-08-27T18:44:25.803Z,99.90
2018-08-27T18:46:54.295Z,99.90
2018-08-27T18:49:22.777Z,99.90
2018-08-27T18:51:51.273Z,99.90
2018-08-27T18:54:19.706Z,99.90
2018-08-27T18:56:48.181Z,99.90
2018-08-27T18:59:16.651Z,99.90
2018-08-27T19:01:45.239Z,99.90
2018-08-27T19:04:13.730Z,99.90
2018-08-27T19:06:42.266Z,99.90
2018-08-27T19:09:10.832Z,99.90
2018-08-27T19:11:39.331Z,99.90
2018-08-27T19:14:08.110Z,99.90
2018-08-27T19:16:37.138Z,99.90
2018-08-27T19:19:05.627Z,99.90
2018-08-27T19:21:34.095Z,99.90
2018-08-27T19:24:02.631Z,99.90
2018-08-27T19:26:31.039Z,99.90
2018-08-27T19:28:59.556Z,99.90
2018-08-27T19:31:27.997Z,99.90
2018-08-27T19:33:56.465Z,99.90
2018-08-27T19:36:25.080Z,99.90
2018-08-27T19:38:53.383Z,99.90
2018-08-27T19:41:21.865Z,99.90
2018-08-27T19:43:50.330Z,99.90
2018-08-27T19:46:18.903Z,99.90
2018-08-27T19:48:47.334Z,99.90
2018-08-27T19:51:15.793Z,99.90
2018-08-27T19:53:44.278Z,99.90
2018-08-27T19:56:12.746Z,99.90
2018-08-27T19:58:41.269Z,99.90
2018-08-27T20:01:09.792Z,99.90
2018-08-27T20:03:38.305Z,99.90
2018-08-27T20:06:06.805Z,99.90
2018-08-27T20:08:35.343Z,99.90
2018-08-27T20:11:03.821Z,99.90
2018-08-27T20:13:32.326Z,99.90
2018-08-27T20:16:00.773Z,99.90
2018-08-27T20:18:29.238Z,99.90
2018-08-27T20:20:57.734Z,99.90
2018-08-27T20:23:26.199Z,99.90
2018-08-27T20:25:54.752Z,99.90
2018-08-27T20:28:23.248Z,99.90
2018-08-27T20:30:51.752Z,99.90
2018-08-27T20:33:20.211Z,99.90
2018-08-27T20:35:48.682Z,99.90
2018-08-27T20:38:17.173Z,99.90
2018-08-27T20:40:45.677Z,99.90
2018-08-27T20:43:14.198Z,99.90
2018-08-27T20:45:42.721Z,99.90
2018-08-27T20:48:11.194Z,99.90
2018-08-27T20:50:39.668Z,99.90
2018-08-27T20:53:08.203Z,99.90
2018-08-27T20:55:36.663Z,99.90
2018-08-27T20:58:05.168Z,99.90
2018-08-27T21:00:33.627Z,99.90
2018-08-27T21:03:02.103Z,99.90
2018-08-27T21:05:30.575Z,99.90
2018-08-27T21:07:59.067Z,99.90
2018-08-27T21:10:27.571Z,99.90
2018-08-27T21:12:56.023Z,99.90
2018-08-27T21:15:24.487Z,99.90
2018-08-27T21:17:53.819Z,99.90
2018-08-27T21:20:23.269Z,99.90
2018-08-27T21:22:51.771Z,99.90
2018-08-27T21:25:20.300Z,99.90
2018-08-27T21:27:50.626Z,99.90
2018-08-27T21:30:20.450Z,99.90
2018-08-27T21:32:48.947Z,99.90
2018-08-27T21:35:17.436Z,99.90
2018-08-27T21:37:45.918Z,99.90
2018-08-27T21:40:14.417Z,99.90
2018-08-27T21:42:42.904Z,99.90
2018-08-27T21:45:11.381Z,99.90
2018-08-27T21:47:39.887Z,99.90
2018-08-27T21:50:08.470Z,99.90
2018-08-27T21:52:37.103Z,99.90
2018-08-27T21:55:05.625Z,99.90
2018-08-27T21:57:34.082Z,99.90
2018-08-27T22:00:02.562Z,99.90
2018-08-27T22:02:36.354Z,99.90
2018-08-27T22:05:04.958Z,99.90
2018-08-27T22:07:33.487Z,99.90
2018-08-27T22:10:01.985Z,99.90
2018-08-27T22:12:30.454Z,99.90
2018-08-27T22:14:58.966Z,99.90
2018-08-27T22:17:27.467Z,99.90
2018-08-27T22:19:55.930Z,99.90
2018-08-27T22:22:24.435Z,99.90
2018-08-27T22:24:52.914Z,99.90
2018-08-27T22:27:21.403Z,99.90
2018-08-27T22:29:49.877Z,99.90
2018-08-27T22:32:18.372Z,99.90
2018-08-27T22:34:53.173Z,99.90
2018-08-27T22:37:21.629Z,99.90
2018-08-27T22:39:50.071Z,99.90
2018-08-27T22:42:18.657Z,99.90
2018-08-27T22:44:47.110Z,99.90
2018-08-27T22:47:15.564Z,99.90
2018-08-27T22:49:44.045Z,99.90
2018-08-27T22:52:13.203Z,99.90
2018-08-27T22:54:41.666Z,99.90
2018-08-27T22:57:10.171Z,99.90
2018-08-27T22:59:38.744Z,99.90
2018-08-27T23:02:07.231Z,99.90
2018-08-27T23:04:41.078Z,99.90
2018-08-27T23:07:09.573Z,99.90
2018-08-27T23:09:38.043Z,99.90
2018-08-27T23:12:06.546Z,99.90
2018-08-27T23:14:34.999Z,99.90
2018-08-27T23:17:03.481Z,99.90
2018-08-27T23:19:32.006Z,99.90
2018-08-27T23:22:00.449Z,99.90
2018-08-27T23:24:28.941Z,99.90
2018-08-27T23:26:57.405Z,99.90
2018-08-27T23:29:25.857Z,99.90
2018-08-27T23:31:54.338Z,99.90
2018-08-27T23:34:22.807Z,99.90
2018-08-27T23:36:51.290Z,99.90
2018-08-27T23:39:19.774Z,99.90
2018-08-27T23:41:48.265Z,99.90
2018-08-27T23:44:16.748Z,99.90
2018-08-27T23:46:45.227Z,99.90
2018-08-27T23:49:13.680Z,99.90
2018-08-27T23:51:42.135Z,99.90
2018-08-27T23:54:10.601Z,99.90
2018-08-27T23:56:39.065Z,99.90
2018-08-27T23:59:07.617Z,99.90
